sensor_id;sensor_type;location;lat;lon;timestamp;P1;durP1;ratioP1;P2;durP2;ratioP2
422;SDS011;198;48.752;9.180;2022-07-29T00:00:08;8.33;;;4.50;;
422;SDS011;198;48.752;9.180;2022-07-29T00:02:35;10.03;;;5.40;;
422;SDS011;198;48.752;9.180;2022-07-29T00:05:01;7.60;;;5.30;;
422;SDS011;198;48.752;9.180;2022-07-29T00:07:27;7.77;;;5.00;;
422;SDS011;198;48.752;9.180;2022-07-29T00:09:53;8.43;;;4.23;;
422;SDS011;198;48.752;9.180;2022-07-29T00:12:19;13.73;;;4.53;;
422;SDS011;198;48.752;9.180;2022-07-29T00:14:46;7.07;;;4.73;;
422;SDS011;198;48.752;9.180;2022-07-29T00:17:11;7.60;;;5.00;;
422;SDS011;198;48.752;9.180;2022-07-29T00:19:37;8.70;;;4.93;;
422;SDS011;198;48.752;9.180;2022-07-29T00:22:02;6.50;;;4.70;;
422;SDS011;198;48.752;9.180;2022-07-29T00:24:28;5.80;;;4.30;;
422;SDS011;198;48.752;9.180;2022-07-29T00:26:53;13.87;;;6.20;;
422;SDS011;198;48.752;9.180;2022-07-29T00:29:19;6.60;;;5.00;;
422;SDS011;198;48.752;9.180;2022-07-29T00:31:44;8.87;;;5.00;;
422;SDS011;198;48.752;9.180;2022-07-29T00:34:10;11.93;;;5.40;;
422;SDS011;198;48.752;9.180;2022-07-29T00:36:54;8.03;;;4.80;;
422;SDS011;198;48.752;9.180;2022-07-29T00:39:20;7.83;;;5.37;;
422;SDS011;198;48.752;9.180;2022-07-29T00:41:45;6.50;;;4.90;;
422;SDS011;198;48.752;9.180;2022-07-29T00:44:11;7.30;;;4.70;;
422;SDS011;198;48.752;9.180;2022-07-29T00:46:36;6.83;;;4.60;;
422;SDS011;198;48.752;9.180;2022-07-29T00:49:02;7.53;;;5.33;;
422;SDS011;198;48.752;9.180;2022-07-29T00:51:27;9.03;;;5.13;;
422;SDS011;198;48.752;9.180;2022-07-29T00:53:54;8.40;;;4.73;;
422;SDS011;198;48.752;9.180;2022-07-29T00:56:21;7.63;;;4.63;;
422;SDS011;198;48.752;9.180;2022-07-29T00:58:46;6.47;;;4.77;;
422;SDS011;198;48.752;9.180;2022-07-29T01:01:15;11.13;;;5.33;;
422;SDS011;198;48.752;9.180;2022-07-29T01:03:40;7.30;;;4.13;;
422;SDS011;198;48.752;9.180;2022-07-29T01:06:06;10.10;;;5.23;;
422;SDS011;198;48.752;9.180;2022-07-29T01:08:31;10.23;;;4.97;;
422;SDS011;198;48.752;9.180;2022-07-29T01:10:58;4.93;;;4.33;;
422;SDS011;198;48.752;9.180;2022-07-29T01:13:26;6.17;;;4.60;;
422;SDS011;198;48.752;9.180;2022-07-29T01:15:54;5.73;;;4.33;;
422;SDS011;198;48.752;9.180;2022-07-29T01:18:27;6.80;;;4.60;;
422;SDS011;198;48.752;9.180;2022-07-29T01:31:40;4.47;;;3.80;;
422;SDS011;198;48.752;9.180;2022-07-29T01:34:24;5.70;;;3.90;;
422;SDS011;198;48.752;9.180;2022-07-29T01:39:47;6.60;;;4.33;;
422;SDS011;198;48.752;9.180;2022-07-29T01:45:17;5.63;;;4.20;;
422;SDS011;198;48.752;9.180;2022-07-29T01:48:03;4.90;;;3.50;;
422;SDS011;198;48.752;9.180;2022-07-29T01:50:40;4.47;;;3.53;;
422;SDS011;198;48.752;9.180;2022-07-29T01:53:16;5.90;;;3.90;;
422;SDS011;198;48.752;9.180;2022-07-29T01:55:51;5.13;;;3.77;;
422;SDS011;198;48.752;9.180;2022-07-29T01:58:18;7.43;;;3.73;;
422;SDS011;198;48.752;9.180;2022-07-29T02:00:45;5.07;;;3.50;;
422;SDS011;198;48.752;9.180;2022-07-29T02:03:13;6.63;;;4.10;;
422;SDS011;198;48.752;9.180;2022-07-29T02:05:42;11.50;;;5.30;;
422;SDS011;198;48.752;9.180;2022-07-29T02:08:09;5.80;;;3.77;;
422;SDS011;198;48.752;9.180;2022-07-29T02:10:35;7.70;;;4.67;;
422;SDS011;198;48.752;9.180;2022-07-29T02:13:03;7.93;;;4.00;;
422;SDS011;198;48.752;9.180;2022-07-29T02:15:31;7.27;;;4.50;;
422;SDS011;198;48.752;9.180;2022-07-29T02:18:06;9.17;;;4.27;;
422;SDS011;198;48.752;9.180;2022-07-29T02:20:36;8.90;;;4.00;;
422;SDS011;198;48.752;9.180;2022-07-29T02:23:04;4.97;;;3.73;;
422;SDS011;198;48.752;9.180;2022-07-29T02:25:32;5.30;;;3.57;;
422;SDS011;198;48.752;9.180;2022-07-29T02:27:57;4.20;;;3.90;;
422;SDS011;198;48.752;9.180;2022-07-29T02:30:25;7.50;;;4.20;;
422;SDS011;198;48.752;9.180;2022-07-29T02:32:52;5.50;;;4.20;;
422;SDS011;198;48.752;9.180;2022-07-29T02:35:19;7.70;;;4.67;;
422;SDS011;198;48.752;9.180;2022-07-29T02:37:46;6.90;;;4.60;;
422;SDS011;198;48.752;9.180;2022-07-29T02:40:33;9.13;;;3.87;;
422;SDS011;198;48.752;9.180;2022-07-29T02:43:02;7.50;;;4.57;;
422;SDS011;198;48.752;9.180;2022-07-29T02:45:30;7.20;;;4.30;;
422;SDS011;198;48.752;9.180;2022-07-29T02:47:57;8.10;;;3.70;;
422;SDS011;198;48.752;9.180;2022-07-29T02:50:32;14.00;;;4.90;;
422;SDS011;198;48.752;9.180;2022-07-29T02:53:05;5.20;;;3.73;;
422;SDS011;198;48.752;9.180;2022-07-29T02:55:37;5.73;;;3.90;;
422;SDS011;198;48.752;9.180;2022-07-29T03:00:47;3.80;;;3.17;;
422;SDS011;198;48.752;9.180;2022-07-29T03:03:16;6.43;;;3.83;;
422;SDS011;198;48.752;9.180;2022-07-29T03:05:43;7.20;;;4.40;;
422;SDS011;198;48.752;9.180;2022-07-29T03:08:10;7.40;;;4.90;;
422;SDS011;198;48.752;9.180;2022-07-29T03:10:37;5.93;;;4.20;;
422;SDS011;198;48.752;9.180;2022-07-29T03:13:05;9.53;;;4.93;;
422;SDS011;198;48.752;9.180;2022-07-29T03:15:32;6.00;;;3.53;;
422;SDS011;198;48.752;9.180;2022-07-29T03:18:00;9.87;;;3.80;;
422;SDS011;198;48.752;9.180;2022-07-29T03:20:26;6.93;;;3.97;;
422;SDS011;198;48.752;9.180;2022-07-29T03:22:51;6.03;;;4.23;;
422;SDS011;198;48.752;9.180;2022-07-29T03:25:18;6.93;;;4.30;;
422;SDS011;198;48.752;9.180;2022-07-29T03:27:44;5.90;;;4.27;;
422;SDS011;198;48.752;9.180;2022-07-29T03:30:11;4.43;;;3.53;;
422;SDS011;198;48.752;9.180;2022-07-29T03:32:38;6.30;;;3.83;;
422;SDS011;198;48.752;9.180;2022-07-29T03:35:04;6.60;;;4.87;;
422;SDS011;198;48.752;9.180;2022-07-29T03:37:30;5.03;;;3.97;;
422;SDS011;198;48.752;9.180;2022-07-29T03:39:56;5.13;;;3.73;;
422;SDS011;198;48.752;9.180;2022-07-29T03:42:24;5.80;;;3.67;;
422;SDS011;198;48.752;9.180;2022-07-29T03:44:53;4.30;;;3.80;;
422;SDS011;198;48.752;9.180;2022-07-29T03:47:22;5.87;;;3.93;;
422;SDS011;198;48.752;9.180;2022-07-29T03:49:54;6.50;;;4.40;;
422;SDS011;198;48.752;9.180;2022-07-29T03:52:24;4.73;;;3.50;;
422;SDS011;198;48.752;9.180;2022-07-29T03:54:50;10.93;;;4.23;;
422;SDS011;198;48.752;9.180;2022-07-29T03:57:16;5.10;;;3.73;;
422;SDS011;198;48.752;9.180;2022-07-29T03:59:45;4.83;;;3.70;;
422;SDS011;198;48.752;9.180;2022-07-29T04:02:11;6.73;;;3.60;;
422;SDS011;198;48.752;9.180;2022-07-29T04:04:37;6.33;;;3.90;;
422;SDS011;198;48.752;9.180;2022-07-29T04:07:03;5.03;;;3.47;;
422;SDS011;198;48.752;9.180;2022-07-29T04:09:29;4.90;;;3.67;;
422;SDS011;198;48.752;9.180;2022-07-29T04:11:55;6.20;;;3.83;;
422;SDS011;198;48.752;9.180;2022-07-29T04:14:20;5.30;;;3.70;;
422;SDS011;198;48.752;9.180;2022-07-29T04:16:46;6.17;;;3.60;;
422;SDS011;198;48.752;9.180;2022-07-29T04:19:11;5.50;;;3.47;;
422;SDS011;198;48.752;9.180;2022-07-29T04:21:40;8.70;;;3.87;;
422;SDS011;198;48.752;9.180;2022-07-29T04:24:06;8.67;;;4.13;;
422;SDS011;198;48.752;9.180;2022-07-29T04:26:32;4.77;;;3.57;;
422;SDS011;198;48.752;9.180;2022-07-29T04:28:58;8.67;;;3.10;;
422;SDS011;198;48.752;9.180;2022-07-29T04:31:24;7.50;;;3.50;;
422;SDS011;198;48.752;9.180;2022-07-29T04:33:50;4.63;;;3.37;;
422;SDS011;198;48.752;9.180;2022-07-29T04:36:15;4.73;;;3.63;;
422;SDS011;198;48.752;9.180;2022-07-29T04:38:41;5.20;;;3.40;;
422;SDS011;198;48.752;9.180;2022-07-29T04:41:06;5.20;;;4.03;;
422;SDS011;198;48.752;9.180;2022-07-29T04:43:33;4.27;;;3.00;;
422;SDS011;198;48.752;9.180;2022-07-29T04:45:59;4.40;;;3.60;;
422;SDS011;198;48.752;9.180;2022-07-29T04:48:25;4.50;;;3.53;;
422;SDS011;198;48.752;9.180;2022-07-29T04:50:51;5.43;;;4.07;;
422;SDS011;198;48.752;9.180;2022-07-29T04:53:17;5.77;;;3.63;;
422;SDS011;198;48.752;9.180;2022-07-29T04:55:43;5.00;;;4.00;;
422;SDS011;198;48.752;9.180;2022-07-29T04:58:09;5.60;;;3.10;;
422;SDS011;198;48.752;9.180;2022-07-29T05:00:35;5.40;;;3.67;;
422;SDS011;198;48.752;9.180;2022-07-29T05:03:01;5.43;;;2.93;;
422;SDS011;198;48.752;9.180;2022-07-29T05:05:27;5.57;;;3.33;;
422;SDS011;198;48.752;9.180;2022-07-29T05:07:53;3.83;;;2.80;;
422;SDS011;198;48.752;9.180;2022-07-29T05:10:18;4.77;;;2.83;;
422;SDS011;198;48.752;9.180;2022-07-29T05:12:44;5.23;;;2.90;;
422;SDS011;198;48.752;9.180;2022-07-29T05:15:09;3.03;;;2.50;;
422;SDS011;198;48.752;9.180;2022-07-29T05:17:35;3.10;;;2.90;;
422;SDS011;198;48.752;9.180;2022-07-29T05:20:00;3.20;;;2.37;;
422;SDS011;198;48.752;9.180;2022-07-29T05:22:26;4.13;;;2.93;;
422;SDS011;198;48.752;9.180;2022-07-29T05:24:51;2.67;;;2.47;;
422;SDS011;198;48.752;9.180;2022-07-29T05:27:17;4.10;;;2.73;;
422;SDS011;198;48.752;9.180;2022-07-29T05:29:42;6.30;;;2.57;;
422;SDS011;198;48.752;9.180;2022-07-29T05:32:08;3.57;;;2.60;;
422;SDS011;198;48.752;9.180;2022-07-29T05:34:33;6.37;;;2.70;;
422;SDS011;198;48.752;9.180;2022-07-29T05:36:59;3.70;;;2.10;;
422;SDS011;198;48.752;9.180;2022-07-29T05:39:25;2.37;;;2.17;;
422;SDS011;198;48.752;9.180;2022-07-29T05:41:50;5.30;;;2.87;;
422;SDS011;198;48.752;9.180;2022-07-29T05:44:16;5.60;;;2.63;;
422;SDS011;198;48.752;9.180;2022-07-29T05:46:41;2.73;;;2.17;;
422;SDS011;198;48.752;9.180;2022-07-29T05:49:07;6.00;;;3.00;;
422;SDS011;198;48.752;9.180;2022-07-29T05:51:33;2.47;;;2.27;;
422;SDS011;198;48.752;9.180;2022-07-29T05:53:59;3.43;;;2.50;;
422;SDS011;198;48.752;9.180;2022-07-29T05:56:24;3.00;;;2.67;;
422;SDS011;198;48.752;9.180;2022-07-29T05:58:50;4.00;;;2.50;;
422;SDS011;198;48.752;9.180;2022-07-29T06:01:16;3.10;;;2.50;;
422;SDS011;198;48.752;9.180;2022-07-29T06:03:42;3.33;;;2.77;;
422;SDS011;198;48.752;9.180;2022-07-29T06:06:08;3.53;;;2.20;;
422;SDS011;198;48.752;9.180;2022-07-29T06:08:33;3.83;;;3.43;;
422;SDS011;198;48.752;9.180;2022-07-29T06:10:59;8.00;;;2.37;;
422;SDS011;198;48.752;9.180;2022-07-29T06:13:26;3.60;;;2.73;;
422;SDS011;198;48.752;9.180;2022-07-29T06:15:51;3.73;;;2.27;;
422;SDS011;198;48.752;9.180;2022-07-29T06:18:17;3.50;;;2.93;;
422;SDS011;198;48.752;9.180;2022-07-29T06:20:43;3.60;;;2.77;;
422;SDS011;198;48.752;9.180;2022-07-29T06:23:08;4.07;;;2.27;;
422;SDS011;198;48.752;9.180;2022-07-29T06:25:34;4.23;;;2.63;;
422;SDS011;198;48.752;9.180;2022-07-29T06:28:01;6.17;;;2.70;;
422;SDS011;198;48.752;9.180;2022-07-29T06:30:27;3.20;;;2.77;;
422;SDS011;198;48.752;9.180;2022-07-29T06:32:53;7.03;;;3.00;;
422;SDS011;198;48.752;9.180;2022-07-29T06:35:20;5.90;;;3.50;;
422;SDS011;198;48.752;9.180;2022-07-29T06:37:46;4.33;;;3.10;;
422;SDS011;198;48.752;9.180;2022-07-29T06:40:12;4.97;;;2.80;;
422;SDS011;198;48.752;9.180;2022-07-29T06:42:56;5.73;;;2.67;;
422;SDS011;198;48.752;9.180;2022-07-29T06:45:22;6.20;;;3.13;;
422;SDS011;198;48.752;9.180;2022-07-29T06:47:47;11.83;;;3.93;;
422;SDS011;198;48.752;9.180;2022-07-29T06:50:14;3.90;;;3.10;;
422;SDS011;198;48.752;9.180;2022-07-29T06:52:40;2.97;;;2.30;;
422;SDS011;198;48.752;9.180;2022-07-29T06:55:06;6.60;;;3.53;;
422;SDS011;198;48.752;9.180;2022-07-29T06:57:32;5.57;;;3.10;;
422;SDS011;198;48.752;9.180;2022-07-29T06:59:58;8.20;;;3.23;;
422;SDS011;198;48.752;9.180;2022-07-29T07:02:24;4.40;;;3.10;;
422;SDS011;198;48.752;9.180;2022-07-29T07:04:49;6.70;;;3.40;;
422;SDS011;198;48.752;9.180;2022-07-29T07:07:15;5.03;;;3.27;;
422;SDS011;198;48.752;9.180;2022-07-29T07:09:40;4.90;;;3.53;;
422;SDS011;198;48.752;9.180;2022-07-29T07:12:06;6.40;;;3.40;;
422;SDS011;198;48.752;9.180;2022-07-29T07:14:32;5.53;;;3.30;;
422;SDS011;198;48.752;9.180;2022-07-29T07:16:57;7.40;;;3.73;;
422;SDS011;198;48.752;9.180;2022-07-29T07:19:25;4.87;;;3.40;;
422;SDS011;198;48.752;9.180;2022-07-29T07:21:51;8.80;;;3.60;;
422;SDS011;198;48.752;9.180;2022-07-29T07:24:17;5.33;;;3.30;;
422;SDS011;198;48.752;9.180;2022-07-29T07:26:43;6.40;;;3.93;;
422;SDS011;198;48.752;9.180;2022-07-29T07:29:09;12.20;;;3.83;;
422;SDS011;198;48.752;9.180;2022-07-29T07:31:35;8.43;;;3.77;;
422;SDS011;198;48.752;9.180;2022-07-29T07:34:01;10.83;;;3.83;;
422;SDS011;198;48.752;9.180;2022-07-29T07:36:27;4.77;;;4.03;;
422;SDS011;198;48.752;9.180;2022-07-29T07:38:53;7.47;;;4.50;;
422;SDS011;198;48.752;9.180;2022-07-29T07:41:18;4.70;;;3.07;;
422;SDS011;198;48.752;9.180;2022-07-29T07:43:44;7.63;;;3.67;;
422;SDS011;198;48.752;9.180;2022-07-29T07:46:09;6.27;;;3.73;;
422;SDS011;198;48.752;9.180;2022-07-29T07:48:35;5.13;;;3.80;;
422;SDS011;198;48.752;9.180;2022-07-29T07:51:00;5.60;;;3.27;;
422;SDS011;198;48.752;9.180;2022-07-29T07:53:26;5.67;;;4.23;;
422;SDS011;198;48.752;9.180;2022-07-29T07:55:52;6.87;;;4.23;;
422;SDS011;198;48.752;9.180;2022-07-29T07:58:17;4.70;;;3.57;;
422;SDS011;198;48.752;9.180;2022-07-29T08:00:43;6.10;;;3.73;;
422;SDS011;198;48.752;9.180;2022-07-29T08:03:08;6.20;;;3.60;;
422;SDS011;198;48.752;9.180;2022-07-29T08:05:37;5.10;;;3.90;;
422;SDS011;198;48.752;9.180;2022-07-29T08:08:03;8.40;;;4.27;;
422;SDS011;198;48.752;9.180;2022-07-29T08:10:29;9.50;;;4.13;;
422;SDS011;198;48.752;9.180;2022-07-29T08:13:13;4.80;;;3.50;;
422;SDS011;198;48.752;9.180;2022-07-29T08:15:39;5.87;;;3.80;;
422;SDS011;198;48.752;9.180;2022-07-29T08:18:06;7.20;;;4.00;;
422;SDS011;198;48.752;9.180;2022-07-29T08:20:31;5.67;;;3.90;;
422;SDS011;198;48.752;9.180;2022-07-29T08:23:00;6.40;;;3.37;;
422;SDS011;198;48.752;9.180;2022-07-29T08:25:26;4.67;;;3.47;;
422;SDS011;198;48.752;9.180;2022-07-29T08:27:52;9.10;;;3.50;;
422;SDS011;198;48.752;9.180;2022-07-29T08:30:17;4.40;;;3.30;;
422;SDS011;198;48.752;9.180;2022-07-29T08:32:43;4.93;;;3.67;;
422;SDS011;198;48.752;9.180;2022-07-29T08:35:08;5.67;;;4.00;;
422;SDS011;198;48.752;9.180;2022-07-29T08:37:34;6.40;;;3.70;;
422;SDS011;198;48.752;9.180;2022-07-29T08:40:00;13.60;;;4.23;;
422;SDS011;198;48.752;9.180;2022-07-29T08:42:25;7.50;;;3.70;;
422;SDS011;198;48.752;9.180;2022-07-29T08:44:51;4.67;;;3.43;;
422;SDS011;198;48.752;9.180;2022-07-29T08:47:18;4.70;;;3.50;;
422;SDS011;198;48.752;9.180;2022-07-29T08:49:44;4.27;;;3.50;;
422;SDS011;198;48.752;9.180;2022-07-29T08:52:11;4.03;;;3.13;;
422;SDS011;198;48.752;9.180;2022-07-29T08:54:39;8.43;;;3.70;;
422;SDS011;198;48.752;9.180;2022-07-29T08:57:07;8.83;;;4.03;;
422;SDS011;198;48.752;9.180;2022-07-29T08:59:34;4.70;;;3.80;;
422;SDS011;198;48.752;9.180;2022-07-29T09:02:02;7.10;;;3.87;;
422;SDS011;198;48.752;9.180;2022-07-29T09:04:30;6.70;;;4.90;;
422;SDS011;198;48.752;9.180;2022-07-29T09:07:01;6.73;;;4.97;;
422;SDS011;198;48.752;9.180;2022-07-29T09:09:29;9.30;;;4.90;;
422;SDS011;198;48.752;9.180;2022-07-29T09:11:55;7.07;;;4.33;;
422;SDS011;198;48.752;9.180;2022-07-29T09:14:21;4.90;;;4.10;;
422;SDS011;198;48.752;9.180;2022-07-29T09:16:48;6.37;;;4.53;;
422;SDS011;198;48.752;9.180;2022-07-29T09:21:57;8.17;;;4.07;;
422;SDS011;198;48.752;9.180;2022-07-29T09:24:25;6.87;;;4.50;;
422;SDS011;198;48.752;9.180;2022-07-29T09:27:00;5.43;;;4.00;;
422;SDS011;198;48.752;9.180;2022-07-29T09:29:26;8.80;;;4.53;;
422;SDS011;198;48.752;9.180;2022-07-29T09:31:53;5.40;;;3.80;;
422;SDS011;198;48.752;9.180;2022-07-29T09:34:26;4.87;;;3.37;;
422;SDS011;198;48.752;9.180;2022-07-29T09:36:56;5.10;;;4.20;;
422;SDS011;198;48.752;9.180;2022-07-29T09:39:29;8.23;;;3.47;;
422;SDS011;198;48.752;9.180;2022-07-29T09:41:57;5.73;;;3.43;;
422;SDS011;198;48.752;9.180;2022-07-29T09:44:25;9.33;;;4.00;;
422;SDS011;198;48.752;9.180;2022-07-29T09:47:00;5.30;;;3.03;;
422;SDS011;198;48.752;9.180;2022-07-29T09:49:52;8.73;;;4.30;;
422;SDS011;198;48.752;9.180;2022-07-29T09:52:27;7.90;;;4.00;;
422;SDS011;198;48.752;9.180;2022-07-29T09:55:03;11.13;;;3.77;;
422;SDS011;198;48.752;9.180;2022-07-29T09:57:33;8.07;;;3.23;;
422;SDS011;198;48.752;9.180;2022-07-29T10:00:20;5.90;;;3.50;;
422;SDS011;198;48.752;9.180;2022-07-29T10:02:46;4.57;;;3.27;;
422;SDS011;198;48.752;9.180;2022-07-29T10:05:25;9.57;;;4.00;;
422;SDS011;198;48.752;9.180;2022-07-29T10:07:56;4.20;;;3.23;;
422;SDS011;198;48.752;9.180;2022-07-29T10:10:33;5.83;;;3.43;;
422;SDS011;198;48.752;9.180;2022-07-29T10:15:32;3.90;;;3.27;;
422;SDS011;198;48.752;9.180;2022-07-29T10:18:04;5.23;;;3.30;;
422;SDS011;198;48.752;9.180;2022-07-29T10:20:30;4.30;;;3.70;;
422;SDS011;198;48.752;9.180;2022-07-29T10:22:56;3.70;;;3.20;;
422;SDS011;198;48.752;9.180;2022-07-29T10:25:22;3.80;;;3.43;;
422;SDS011;198;48.752;9.180;2022-07-29T10:27:48;8.33;;;3.90;;
422;SDS011;198;48.752;9.180;2022-07-29T10:30:16;5.07;;;3.80;;
422;SDS011;198;48.752;9.180;2022-07-29T10:38:10;4.40;;;3.50;;
422;SDS011;198;48.752;9.180;2022-07-29T10:43:46;8.07;;;4.23;;
422;SDS011;198;48.752;9.180;2022-07-29T10:46:13;6.47;;;4.40;;
422;SDS011;198;48.752;9.180;2022-07-29T10:54:19;24.60;;;6.77;;
422;SDS011;198;48.752;9.180;2022-07-29T11:00:25;27.13;;;8.10;;
422;SDS011;198;48.752;9.180;2022-07-29T11:02:45;10.30;;;4.93;;
422;SDS011;198;48.752;9.180;2022-07-29T11:05:16;11.03;;;5.53;;
422;SDS011;198;48.752;9.180;2022-07-29T11:10:50;12.00;;;6.90;;
422;SDS011;198;48.752;9.180;2022-07-29T11:16:11;16.93;;;8.10;;
422;SDS011;198;48.752;9.180;2022-07-29T11:21:37;15.73;;;8.13;;
422;SDS011;198;48.752;9.180;2022-07-29T11:26:41;7.80;;;6.50;;
422;SDS011;198;48.752;9.180;2022-07-29T11:29:18;11.00;;;6.20;;
422;SDS011;198;48.752;9.180;2022-07-29T11:31:46;6.80;;;5.40;;
422;SDS011;198;48.752;9.180;2022-07-29T11:39:35;8.83;;;6.47;;
422;SDS011;198;48.752;9.180;2022-07-29T11:42:44;12.20;;;6.70;;
422;SDS011;198;48.752;9.180;2022-07-29T11:47:20;13.27;;;7.13;;
422;SDS011;198;48.752;9.180;2022-07-29T11:49:46;8.13;;;5.80;;
422;SDS011;198;48.752;9.180;2022-07-29T11:52:13;9.10;;;5.27;;
422;SDS011;198;48.752;9.180;2022-07-29T11:54:38;7.73;;;5.33;;
422;SDS011;198;48.752;9.180;2022-07-29T11:57:07;12.27;;;5.63;;
422;SDS011;198;48.752;9.180;2022-07-29T11:59:39;6.57;;;4.83;;
422;SDS011;198;48.752;9.180;2022-07-29T12:02:06;6.33;;;4.40;;
422;SDS011;198;48.752;9.180;2022-07-29T12:04:33;7.47;;;4.77;;
422;SDS011;198;48.752;9.180;2022-07-29T12:06:59;7.47;;;5.03;;
422;SDS011;198;48.752;9.180;2022-07-29T12:09:25;9.33;;;3.93;;
422;SDS011;198;48.752;9.180;2022-07-29T12:11:56;8.53;;;3.47;;
422;SDS011;198;48.752;9.180;2022-07-29T12:14:29;4.17;;;3.73;;
422;SDS011;198;48.752;9.180;2022-07-29T12:16:58;5.87;;;3.60;;
422;SDS011;198;48.752;9.180;2022-07-29T12:19:25;4.30;;;2.80;;
422;SDS011;198;48.752;9.180;2022-07-29T12:21:52;4.07;;;3.00;;
422;SDS011;198;48.752;9.180;2022-07-29T12:24:23;4.53;;;3.10;;
422;SDS011;198;48.752;9.180;2022-07-29T12:26:56;4.47;;;2.37;;
422;SDS011;198;48.752;9.180;2022-07-29T12:29:22;4.30;;;3.10;;
422;SDS011;198;48.752;9.180;2022-07-29T12:31:52;3.93;;;3.13;;
422;SDS011;198;48.752;9.180;2022-07-29T12:34:19;4.10;;;2.80;;
422;SDS011;198;48.752;9.180;2022-07-29T12:36:47;4.33;;;3.20;;
422;SDS011;198;48.752;9.180;2022-07-29T12:39:14;7.97;;;4.07;;
422;SDS011;198;48.752;9.180;2022-07-29T12:41:41;5.33;;;3.63;;
422;SDS011;198;48.752;9.180;2022-07-29T12:44:06;7.30;;;4.90;;
422;SDS011;198;48.752;9.180;2022-07-29T12:46:32;5.50;;;4.03;;
422;SDS011;198;48.752;9.180;2022-07-29T12:48:58;3.03;;;2.73;;
422;SDS011;198;48.752;9.180;2022-07-29T12:54:17;11.80;;;3.93;;
422;SDS011;198;48.752;9.180;2022-07-29T12:56:43;5.07;;;3.50;;
422;SDS011;198;48.752;9.180;2022-07-29T12:59:16;7.43;;;4.03;;
422;SDS011;198;48.752;9.180;2022-07-29T13:01:44;5.53;;;3.40;;
422;SDS011;198;48.752;9.180;2022-07-29T13:04:23;5.90;;;3.50;;
422;SDS011;198;48.752;9.180;2022-07-29T13:07:00;5.57;;;4.27;;
422;SDS011;198;48.752;9.180;2022-07-29T13:09:35;5.23;;;3.93;;
422;SDS011;198;48.752;9.180;2022-07-29T13:12:05;7.47;;;3.53;;
422;SDS011;198;48.752;9.180;2022-07-29T13:14:37;6.03;;;3.90;;
422;SDS011;198;48.752;9.180;2022-07-29T13:17:08;11.13;;;4.23;;
422;SDS011;198;48.752;9.180;2022-07-29T13:22:11;14.70;;;4.70;;
422;SDS011;198;48.752;9.180;2022-07-29T13:27:17;8.30;;;5.17;;
422;SDS011;198;48.752;9.180;2022-07-29T13:29:44;6.97;;;4.93;;
422;SDS011;198;48.752;9.180;2022-07-29T13:32:10;10.40;;;6.20;;
422;SDS011;198;48.752;9.180;2022-07-29T13:34:37;9.33;;;4.70;;
422;SDS011;198;48.752;9.180;2022-07-29T13:37:02;7.60;;;5.40;;
422;SDS011;198;48.752;9.180;2022-07-29T13:39:28;5.23;;;4.17;;
422;SDS011;198;48.752;9.180;2022-07-29T13:41:53;11.47;;;5.57;;
422;SDS011;198;48.752;9.180;2022-07-29T13:44:19;15.27;;;5.70;;
422;SDS011;198;48.752;9.180;2022-07-29T13:46:44;8.33;;;4.70;;
422;SDS011;198;48.752;9.180;2022-07-29T13:49:10;11.00;;;4.20;;
422;SDS011;198;48.752;9.180;2022-07-29T13:51:36;7.53;;;4.70;;
422;SDS011;198;48.752;9.180;2022-07-29T13:54:02;6.97;;;4.53;;
422;SDS011;198;48.752;9.180;2022-07-29T13:56:28;8.80;;;4.57;;
422;SDS011;198;48.752;9.180;2022-07-29T13:58:53;5.47;;;3.60;;
422;SDS011;198;48.752;9.180;2022-07-29T14:01:19;8.70;;;4.90;;
422;SDS011;198;48.752;9.180;2022-07-29T14:03:44;8.73;;;5.90;;
422;SDS011;198;48.752;9.180;2022-07-29T14:06:10;8.80;;;4.77;;
422;SDS011;198;48.752;9.180;2022-07-29T14:08:35;6.90;;;3.97;;
422;SDS011;198;48.752;9.180;2022-07-29T14:11:01;22.80;;;5.90;;
422;SDS011;198;48.752;9.180;2022-07-29T14:13:26;5.97;;;4.10;;
422;SDS011;198;48.752;9.180;2022-07-29T14:15:52;10.07;;;5.50;;
422;SDS011;198;48.752;9.180;2022-07-29T14:18:18;6.83;;;3.90;;
422;SDS011;198;48.752;9.180;2022-07-29T14:20:43;12.13;;;4.77;;
422;SDS011;198;48.752;9.180;2022-07-29T14:23:09;8.53;;;4.83;;
422;SDS011;198;48.752;9.180;2022-07-29T14:25:34;7.63;;;4.27;;
422;SDS011;198;48.752;9.180;2022-07-29T14:28:00;6.83;;;4.80;;
422;SDS011;198;48.752;9.180;2022-07-29T14:30:26;4.60;;;3.70;;
422;SDS011;198;48.752;9.180;2022-07-29T14:32:52;9.13;;;4.93;;
422;SDS011;198;48.752;9.180;2022-07-29T14:35:17;6.53;;;4.27;;
422;SDS011;198;48.752;9.180;2022-07-29T14:37:43;6.00;;;4.17;;
422;SDS011;198;48.752;9.180;2022-07-29T14:40:08;4.50;;;4.20;;
422;SDS011;198;48.752;9.180;2022-07-29T14:42:34;10.73;;;5.80;;
422;SDS011;198;48.752;9.180;2022-07-29T14:45:01;6.60;;;4.87;;
422;SDS011;198;48.752;9.180;2022-07-29T14:47:26;12.97;;;5.40;;
422;SDS011;198;48.752;9.180;2022-07-29T14:49:52;11.47;;;6.27;;
422;SDS011;198;48.752;9.180;2022-07-29T14:52:17;13.83;;;6.60;;
422;SDS011;198;48.752;9.180;2022-07-29T14:54:43;5.60;;;4.60;;
422;SDS011;198;48.752;9.180;2022-07-29T14:57:08;9.50;;;4.10;;
422;SDS011;198;48.752;9.180;2022-07-29T14:59:34;7.70;;;5.23;;
422;SDS011;198;48.752;9.180;2022-07-29T15:01:59;9.43;;;4.40;;
422;SDS011;198;48.752;9.180;2022-07-29T15:04:25;15.93;;;4.37;;
422;SDS011;198;48.752;9.180;2022-07-29T15:06:50;8.10;;;4.77;;
422;SDS011;198;48.752;9.180;2022-07-29T15:09:16;12.23;;;5.30;;
422;SDS011;198;48.752;9.180;2022-07-29T15:11:42;8.70;;;4.67;;
422;SDS011;198;48.752;9.180;2022-07-29T15:14:08;9.03;;;5.43;;
422;SDS011;198;48.752;9.180;2022-07-29T15:16:37;8.60;;;5.20;;
422;SDS011;198;48.752;9.180;2022-07-29T15:19:04;11.20;;;5.87;;
422;SDS011;198;48.752;9.180;2022-07-29T15:21:30;6.47;;;5.13;;
422;SDS011;198;48.752;9.180;2022-07-29T15:23:55;10.90;;;5.90;;
422;SDS011;198;48.752;9.180;2022-07-29T15:26:21;9.10;;;4.63;;
422;SDS011;198;48.752;9.180;2022-07-29T15:28:46;14.40;;;6.70;;
422;SDS011;198;48.752;9.180;2022-07-29T15:31:12;9.13;;;6.00;;
422;SDS011;198;48.752;9.180;2022-07-29T15:33:37;10.90;;;6.60;;
422;SDS011;198;48.752;9.180;2022-07-29T15:36:04;11.97;;;6.33;;
422;SDS011;198;48.752;9.180;2022-07-29T15:38:30;12.60;;;7.50;;
422;SDS011;198;48.752;9.180;2022-07-29T15:40:55;13.63;;;5.77;;
422;SDS011;198;48.752;9.180;2022-07-29T15:43:21;11.50;;;7.27;;
422;SDS011;198;48.752;9.180;2022-07-29T15:45:47;8.33;;;5.30;;
422;SDS011;198;48.752;9.180;2022-07-29T15:48:32;9.13;;;6.20;;
422;SDS011;198;48.752;9.180;2022-07-29T15:50:58;10.60;;;4.77;;
422;SDS011;198;48.752;9.180;2022-07-29T15:53:24;7.60;;;6.70;;
422;SDS011;198;48.752;9.180;2022-07-29T15:55:50;13.00;;;5.70;;
422;SDS011;198;48.752;9.180;2022-07-29T15:58:16;14.40;;;6.27;;
422;SDS011;198;48.752;9.180;2022-07-29T16:00:42;12.20;;;6.93;;
422;SDS011;198;48.752;9.180;2022-07-29T16:03:07;7.47;;;5.43;;
422;SDS011;198;48.752;9.180;2022-07-29T16:05:33;8.27;;;6.20;;
422;SDS011;198;48.752;9.180;2022-07-29T16:07:58;9.17;;;6.33;;
422;SDS011;198;48.752;9.180;2022-07-29T16:10:24;8.50;;;5.67;;
422;SDS011;198;48.752;9.180;2022-07-29T16:12:50;10.27;;;5.60;;
422;SDS011;198;48.752;9.180;2022-07-29T16:15:16;5.67;;;4.77;;
422;SDS011;198;48.752;9.180;2022-07-29T16:17:41;8.37;;;6.03;;
422;SDS011;198;48.752;9.180;2022-07-29T16:20:07;11.63;;;5.57;;
422;SDS011;198;48.752;9.180;2022-07-29T16:22:33;14.33;;;6.90;;
422;SDS011;198;48.752;9.180;2022-07-29T16:24:58;10.33;;;6.33;;
422;SDS011;198;48.752;9.180;2022-07-29T16:27:24;8.23;;;5.70;;
422;SDS011;198;48.752;9.180;2022-07-29T16:29:55;8.37;;;6.03;;
422;SDS011;198;48.752;9.180;2022-07-29T16:32:20;7.50;;;6.20;;
422;SDS011;198;48.752;9.180;2022-07-29T16:34:46;9.33;;;5.43;;
422;SDS011;198;48.752;9.180;2022-07-29T16:37:11;17.17;;;6.17;;
422;SDS011;198;48.752;9.180;2022-07-29T16:39:37;8.20;;;5.70;;
422;SDS011;198;48.752;9.180;2022-07-29T16:42:03;16.20;;;5.90;;
422;SDS011;198;48.752;9.180;2022-07-29T16:44:29;11.93;;;6.07;;
422;SDS011;198;48.752;9.180;2022-07-29T16:46:54;8.67;;;6.30;;
422;SDS011;198;48.752;9.180;2022-07-29T16:49:20;6.77;;;4.93;;
422;SDS011;198;48.752;9.180;2022-07-29T16:51:45;9.30;;;6.03;;